createdAt,value
2024-02-16T00:00:09.344Z,2422.00
2024-02-16T00:01:09.322Z,2386.00
2024-02-16T00:02:09.268Z,2413.00
2024-02-16T00:03:09.312Z,2444.00
2024-02-16T00:04:09.328Z,2447.00
2024-02-16T00:05:09.538Z,2438.00
2024-02-16T00:06:09.290Z,2433.00
2024-02-16T00:07:09.341Z,2433.00
2024-02-16T00:08:09.270Z,2406.00
2024-02-16T00:09:09.254Z,2401.00
2024-02-16T00:10:09.316Z,2391.00
2024-02-16T00:11:09.253Z,2397.00
2024-02-16T00:12:09.262Z,2394.00
2024-02-16T00:13:09.261Z,2404.00
2024-02-16T00:14:09.258Z,2395.00
2024-02-16T00:15:09.357Z,2368.00
2024-02-16T00:16:09.287Z,2338.00
2024-02-16T00:17:09.298Z,2324.00
2024-02-16T00:18:09.368Z,2325.00
2024-02-16T00:19:09.380Z,2306.00
2024-02-16T00:20:09.391Z,2274.00
2024-02-16T00:21:09.431Z,2298.00
2024-02-16T00:22:09.394Z,2361.00
2024-02-16T00:23:09.372Z,2348.00
2024-02-16T00:24:09.357Z,2355.00
2024-02-16T00:25:09.388Z,2354.00
2024-02-16T00:26:09.493Z,2383.00
2024-02-16T00:27:09.595Z,2388.00
2024-02-16T00:28:09.505Z,2382.00
2024-02-16T00:29:09.533Z,2378.00
2024-02-16T00:30:09.679Z,2383.00
2024-02-16T00:31:09.769Z,2381.00
2024-02-16T00:32:09.696Z,2391.00
2024-02-16T00:33:09.918Z,2397.00
2024-02-16T00:34:10.040Z,2372.00
2024-02-16T00:35:10.068Z,2387.00
2024-02-16T00:36:10.226Z,2407.00
2024-02-16T00:37:10.041Z,2409.00
2024-02-16T00:38:10.198Z,2422.00
2024-02-16T00:39:10.194Z,2421.00
2024-02-16T00:40:10.339Z,2381.00
2024-02-16T00:41:10.276Z,2349.00
2024-02-16T00:42:10.416Z,2347.00
2024-02-16T00:43:10.384Z,2317.00
2024-02-16T00:44:10.385Z,2329.00
2024-02-16T00:45:10.630Z,2337.00
2024-02-16T00:46:10.505Z,2322.00
2024-02-16T00:47:10.501Z,2290.00
2024-02-16T00:48:10.583Z,2255.00
2024-02-16T00:49:10.665Z,2240.00
2024-02-16T00:50:10.880Z,2212.00
2024-02-16T00:51:10.812Z,2190.00
2024-02-16T00:52:10.756Z,2180.00
2024-02-16T00:53:10.844Z,2162.00
2024-02-16T00:54:10.966Z,2184.00
2024-02-16T00:55:10.992Z,2178.00
2024-02-16T00:56:10.987Z,2185.00
2024-02-16T00:57:11.136Z,2194.00
2024-02-16T00:58:11.095Z,2204.00
2024-02-16T00:59:11.107Z,2208.00
2024-02-16T01:00:11.188Z,2192.00
2024-02-16T01:01:11.125Z,2175.00
2024-02-16T01:02:11.222Z,2150.00
2024-02-16T01:03:11.256Z,2099.00
2024-02-16T01:04:11.304Z,2081.00
2024-02-16T01:05:11.789Z,2065.00
2024-02-16T01:06:11.350Z,2040.00
2024-02-16T01:07:11.416Z,2025.00
2024-02-16T01:08:11.408Z,1991.00
2024-02-16T01:09:11.419Z,1968.00
2024-02-16T01:10:11.442Z,1956.00
2024-02-16T01:11:11.525Z,1948.00
2024-02-16T01:12:11.546Z,1921.00
2024-02-16T01:13:11.487Z,1891.00
2024-02-16T01:14:11.568Z,1883.00
2024-02-16T01:15:11.668Z,1874.00
2024-02-16T01:16:11.680Z,1832.00
2024-02-16T01:17:11.657Z,1814.00
2024-02-16T01:18:11.789Z,1808.00
2024-02-16T01:19:11.902Z,1776.00
2024-02-16T01:20:12.468Z,1756.00
2024-02-16T01:21:11.877Z,1737.00
2024-02-16T01:22:11.860Z,1720.00
2024-02-16T01:23:11.877Z,1726.00
2024-02-16T01:24:12.128Z,1755.00
2024-02-16T01:25:12.000Z,1764.00
2024-02-16T01:26:12.055Z,1775.00
2024-02-16T01:27:12.097Z,1799.00
2024-02-16T01:28:12.140Z,1842.00
2024-02-16T01:29:12.163Z,1896.00
2024-02-16T01:30:12.496Z,1971.00
2024-02-16T01:31:12.262Z,2001.00
2024-02-16T01:32:12.339Z,2036.00
2024-02-16T01:33:12.430Z,2124.00
2024-02-16T01:34:12.519Z,2213.00
2024-02-16T01:35:12.681Z,2245.00
2024-02-16T01:36:12.533Z,2255.00
2024-02-16T01:37:12.582Z,2256.00
2024-02-16T01:38:12.537Z,2279.00
2024-02-16T01:39:12.765Z,2270.00
2024-02-16T01:40:12.864Z,2242.00
2024-02-16T01:41:12.823Z,2233.00
2024-02-16T01:42:12.834Z,2223.00
2024-02-16T01:43:12.812Z,2254.00
2024-02-16T01:44:12.831Z,2256.00
2024-02-16T01:45:12.902Z,2249.00
2024-02-16T01:46:12.936Z,2231.00
2024-02-16T01:47:13.003Z,2253.00
2024-02-16T01:48:13.216Z,2258.00
2024-02-16T01:49:13.109Z,2260.00
2024-02-16T01:50:13.110Z,2247.00
2024-02-16T01:51:13.149Z,2230.00
2024-02-16T01:52:13.132Z,2234.00
2024-02-16T01:53:13.174Z,2220.00
2024-02-16T01:54:13.271Z,2206.00
2024-02-16T01:55:13.284Z,2247.00
2024-02-16T01:56:13.249Z,2249.00
2024-02-16T01:57:13.313Z,2256.00
2024-02-16T01:58:13.272Z,2254.00
2024-02-16T01:59:13.297Z,2231.00
2024-02-16T02:00:13.346Z,2219.00
2024-02-16T02:01:13.325Z,2200.00
2024-02-16T02:02:13.289Z,2183.00
2024-02-16T02:03:13.327Z,2177.00
2024-02-16T02:04:13.316Z,2162.00
2024-02-16T02:05:13.479Z,2153.00
2024-02-16T02:06:13.478Z,2152.00
2024-02-16T02:07:13.422Z,2136.00
2024-02-16T02:08:13.347Z,2140.00
2024-02-16T02:09:13.793Z,2143.00
2024-02-16T02:10:13.418Z,2212.00
2024-02-16T02:11:13.418Z,2287.00
2024-02-16T02:12:13.514Z,2331.00
2024-02-16T02:13:13.362Z,2403.00
2024-02-16T02:14:13.429Z,2450.00
2024-02-16T02:15:13.632Z,2470.00
2024-02-16T02:16:13.632Z,2477.00
2024-02-16T02:17:13.572Z,2487.00
2024-02-16T02:18:14.686Z,2461.00
2024-02-16T02:19:13.713Z,2488.00
2024-02-16T02:20:13.809Z,2420.00
2024-02-16T02:21:13.676Z,2309.00
2024-02-16T02:22:13.721Z,2279.00
2024-02-16T02:23:13.854Z,2274.00
2024-02-16T02:24:13.889Z,2282.00
2024-02-16T02:25:13.885Z,2286.00
2024-02-16T02:26:13.900Z,2288.00
2024-02-16T02:27:14.023Z,2283.00
2024-02-16T02:28:13.996Z,2262.00
2024-02-16T02:29:14.036Z,2240.00
2024-02-16T02:30:14.242Z,2215.00
2024-02-16T02:31:14.132Z,2211.00
2024-02-16T02:32:14.239Z,2184.00
2024-02-16T02:33:14.370Z,2157.00
2024-02-16T02:34:14.332Z,2125.00
2024-02-16T02:35:14.406Z,2090.00
2024-02-16T02:36:14.526Z,2078.00
2024-02-16T02:37:14.379Z,2050.00
2024-02-16T02:38:14.461Z,2044.00
2024-02-16T02:39:14.428Z,2053.00
2024-02-16T02:40:15.025Z,2054.00
2024-02-16T02:41:14.472Z,2036.00
2024-02-16T02:42:14.570Z,2034.00
2024-02-16T02:43:14.532Z,2041.00
2024-02-16T02:44:14.535Z,2054.00
2024-02-16T02:45:14.775Z,2040.00
2024-02-16T02:46:14.655Z,2047.00
2024-02-16T02:47:14.710Z,2054.00
2024-02-16T02:48:14.976Z,2078.00
2024-02-16T02:49:14.928Z,2095.00
2024-02-16T02:50:14.883Z,2129.00
2024-02-16T02:51:14.968Z,2138.00
2024-02-16T02:52:15.051Z,2155.00
2024-02-16T02:53:15.068Z,2162.00
2024-02-16T02:54:15.145Z,2176.00
2024-02-16T02:55:15.217Z,2186.00
2024-02-16T02:56:15.211Z,2203.00
2024-02-16T02:57:15.270Z,2253.00
2024-02-16T02:58:15.258Z,2299.00
2024-02-16T02:59:15.230Z,2320.00
2024-02-16T03:00:15.484Z,2323.00
2024-02-16T03:01:15.465Z,2320.00
2024-02-16T03:02:15.495Z,2309.00
2024-02-16T03:03:15.572Z,2309.00
2024-02-16T03:04:15.625Z,2308.00
2024-02-16T03:05:15.506Z,2320.00
2024-02-16T03:06:15.615Z,2345.00
2024-02-16T03:07:15.644Z,2359.00
2024-02-16T03:08:15.717Z,2368.00
2024-02-16T03:09:15.736Z,2373.00
2024-02-16T03:10:15.594Z,2385.00
2024-02-16T03:11:15.685Z,2397.00
2024-02-16T03:12:15.809Z,2406.00
2024-02-16T03:13:15.710Z,2406.00
2024-02-16T03:14:15.758Z,2407.00
2024-02-16T03:15:15.904Z,2398.00
2024-02-16T03:16:15.856Z,2384.00
2024-02-16T03:17:15.852Z,2380.00
2024-02-16T03:18:16.085Z,2386.00
2024-02-16T03:19:16.044Z,2416.00
2024-02-16T03:20:16.064Z,2424.00
2024-02-16T03:21:16.075Z,2435.00
2024-02-16T03:22:16.124Z,2447.00
2024-02-16T03:23:16.119Z,2458.00
2024-02-16T03:24:16.147Z,2460.00
2024-02-16T03:25:16.427Z,2466.00
2024-02-16T03:26:16.327Z,2474.00
2024-02-16T03:27:16.409Z,2462.00
2024-02-16T03:28:16.376Z,2473.00
2024-02-16T03:29:16.458Z,2476.00
2024-02-16T03:30:16.536Z,2465.00
2024-02-16T03:31:16.475Z,2463.00
2024-02-16T03:32:16.546Z,2453.00
2024-02-16T03:33:16.610Z,2460.00
2024-02-16T03:34:16.923Z,2447.00
2024-02-16T03:35:16.608Z,2436.00
2024-02-16T03:36:16.758Z,2445.00
2024-02-16T03:37:16.629Z,2454.00
2024-02-16T03:38:16.627Z,2438.00
2024-02-16T03:39:16.761Z,2433.00
2024-02-16T03:40:16.719Z,2419.00
2024-02-16T03:41:16.762Z,2423.00
2024-02-16T03:42:16.883Z,2393.00
2024-02-16T03:43:16.870Z,2398.00
2024-02-16T03:44:16.883Z,2420.00
2024-02-16T03:45:17.011Z,2430.00
2024-02-16T03:46:16.920Z,2435.00
2024-02-16T03:47:18.030Z,2435.00
2024-02-16T03:48:17.251Z,2433.00
2024-02-16T03:49:17.097Z,2437.00
2024-02-16T03:50:16.926Z,2413.00
2024-02-16T03:51:17.002Z,2388.00
2024-02-16T03:52:16.920Z,2365.00
2024-02-16T03:53:16.944Z,2335.00
2024-02-16T03:54:17.041Z,2299.00
2024-02-16T03:55:16.969Z,2281.00
2024-02-16T03:56:16.947Z,2300.00
2024-02-16T03:57:17.004Z,2280.00
2024-02-16T03:58:16.982Z,2278.00
2024-02-16T03:59:16.952Z,2268.00
2024-02-16T04:00:17.074Z,2271.00
2024-02-16T04:01:17.102Z,2259.00
2024-02-16T04:02:16.918Z,2270.00
2024-02-16T04:03:16.921Z,2259.00
2024-02-16T04:04:16.981Z,2280.00
2024-02-16T04:05:17.508Z,2285.00
2024-02-16T04:06:17.045Z,2279.00
2024-02-16T04:07:17.057Z,2264.00
2024-02-16T04:08:17.037Z,2246.00
2024-02-16T04:09:17.103Z,2251.00
2024-02-16T04:10:17.187Z,2247.00
2024-02-16T04:11:17.219Z,2246.00
2024-02-16T04:12:17.185Z,2263.00
2024-02-16T04:13:17.230Z,2272.00
2024-02-16T04:14:17.246Z,2269.00
2024-02-16T04:15:17.340Z,2265.00
2024-02-16T04:16:17.298Z,2244.00
2024-02-16T04:17:17.273Z,2275.00
2024-02-16T04:18:17.390Z,2351.00
2024-02-16T04:19:17.453Z,2376.00
2024-02-16T04:20:17.425Z,2339.00
2024-02-16T04:21:17.429Z,2269.00
2024-02-16T04:22:17.462Z,2230.00
2024-02-16T04:23:17.542Z,2238.00
2024-02-16T04:24:17.619Z,2233.00
2024-02-16T04:25:17.618Z,2172.00
2024-02-16T04:26:17.648Z,2090.00
2024-02-16T04:27:17.745Z,2058.00
2024-02-16T04:28:17.734Z,2045.00
2024-02-16T04:29:17.780Z,2043.00
2024-02-16T04:30:17.860Z,2067.00
2024-02-16T04:31:17.828Z,2089.00
2024-02-16T04:32:17.839Z,2107.00
2024-02-16T04:33:18.116Z,2125.00
2024-02-16T04:34:18.059Z,2138.00
2024-02-16T04:35:18.168Z,2148.00
2024-02-16T04:36:18.028Z,2156.00
2024-02-16T04:37:18.076Z,2164.00
2024-02-16T04:38:18.088Z,2196.00
2024-02-16T04:39:18.177Z,2260.00
2024-02-16T04:40:18.221Z,2329.00
2024-02-16T04:41:18.287Z,2377.00
2024-02-16T04:42:18.331Z,2390.00
2024-02-16T04:43:18.220Z,2373.00
2024-02-16T04:44:18.299Z,2331.00
2024-02-16T04:45:18.490Z,2296.00
2024-02-16T04:46:18.340Z,2269.00
2024-02-16T04:47:18.433Z,2256.00
2024-02-16T04:48:18.559Z,2247.00
2024-02-16T04:49:18.669Z,2267.00
2024-02-16T04:50:18.518Z,2265.00
2024-02-16T04:51:18.538Z,2272.00
2024-02-16T04:52:18.563Z,2286.00
2024-02-16T04:53:18.625Z,2306.00
2024-02-16T04:54:18.672Z,2297.00
2024-02-16T04:55:18.832Z,2300.00
2024-02-16T04:56:18.780Z,2312.00
2024-02-16T04:57:18.748Z,2301.00
2024-02-16T04:58:18.757Z,2297.00
2024-02-16T04:59:18.827Z,2294.00
2024-02-16T05:00:18.957Z,2287.00
2024-02-16T05:01:18.946Z,2273.00
2024-02-16T05:02:26.466Z,600.00
2024-02-16T05:03:26.578Z,600.00
2024-02-16T05:04:26.506Z,600.00
2024-02-16T05:05:26.587Z,600.00
2024-02-16T05:06:26.662Z,600.00
2024-02-16T05:07:26.531Z,605.00
2024-02-16T05:08:26.562Z,605.00
2024-02-16T05:09:26.559Z,608.00
2024-02-16T05:10:26.660Z,612.00
2024-02-16T05:11:26.639Z,607.00
2024-02-16T05:12:26.582Z,612.00
2024-02-16T05:13:26.513Z,619.00
2024-02-16T05:14:26.600Z,633.00
2024-02-16T05:15:26.579Z,637.00
2024-02-16T05:16:26.528Z,644.00
2024-02-16T05:17:26.650Z,645.00
2024-02-16T05:18:26.695Z,652.00
2024-02-16T05:19:26.692Z,649.00
2024-02-16T05:20:26.657Z,648.00
2024-02-16T05:21:26.617Z,647.00
2024-02-16T05:22:26.606Z,640.00
2024-02-16T05:23:26.466Z,643.00
2024-02-16T05:24:26.538Z,638.00
2024-02-16T05:25:26.599Z,644.00
2024-02-16T05:26:26.510Z,645.00
2024-02-16T05:27:26.609Z,652.00
2024-02-16T05:28:26.525Z,661.00
2024-02-16T05:29:26.537Z,665.00
2024-02-16T05:30:26.693Z,663.00
2024-02-16T05:31:26.541Z,666.00
2024-02-16T05:32:26.595Z,666.00
2024-02-16T05:33:26.644Z,665.00
2024-02-16T05:34:26.671Z,667.00
2024-02-16T05:35:26.574Z,679.00
2024-02-16T05:36:26.602Z,689.00
2024-02-16T05:37:26.557Z,699.00
2024-02-16T05:38:26.627Z,704.00
2024-02-16T05:39:26.646Z,704.00
2024-02-16T05:40:26.630Z,700.00
2024-02-16T05:41:26.501Z,727.00
2024-02-16T05:42:26.558Z,748.00
2024-02-16T05:43:26.537Z,804.00
2024-02-16T05:44:26.631Z,832.00
2024-02-16T05:45:26.711Z,820.00
2024-02-16T05:46:26.539Z,799.00
2024-02-16T05:47:26.553Z,803.00
2024-02-16T05:48:26.628Z,804.00
2024-02-16T05:49:26.667Z,788.00
2024-02-16T05:50:26.768Z,780.00
2024-02-16T05:51:26.658Z,776.00
2024-02-16T05:52:26.784Z,792.00
2024-02-16T05:53:26.765Z,778.00
2024-02-16T05:54:26.812Z,763.00
2024-02-16T05:55:26.876Z,750.00
2024-02-16T05:56:26.920Z,735.00
2024-02-16T05:57:26.968Z,721.00
2024-02-16T05:58:26.920Z,710.00
2024-02-16T05:59:27.052Z,690.00
2024-02-16T06:00:27.600Z,678.00
2024-02-16T06:01:27.171Z,677.00
2024-02-16T06:02:27.160Z,673.00
2024-02-16T06:03:27.185Z,669.00
2024-02-16T06:04:27.321Z,671.00
2024-02-16T06:05:27.407Z,691.00
2024-02-16T06:06:27.424Z,703.00
2024-02-16T06:07:27.532Z,707.00
2024-02-16T06:08:30.617Z,714.00
2024-02-16T06:09:27.510Z,723.00
2024-02-16T06:10:27.454Z,704.00
2024-02-16T06:11:27.536Z,705.00
2024-02-16T06:12:27.489Z,703.00
2024-02-16T06:13:27.451Z,715.00
2024-02-16T06:14:27.457Z,728.00
2024-02-16T06:15:27.589Z,733.00
2024-02-16T06:16:27.485Z,723.00
2024-02-16T06:17:27.464Z,713.00
2024-02-16T06:18:27.571Z,719.00
2024-02-16T06:19:27.584Z,710.00
2024-02-16T06:20:27.503Z,701.00
2024-02-16T06:21:27.507Z,697.00
2024-02-16T06:22:27.461Z,692.00
2024-02-16T06:23:27.560Z,687.00
2024-02-16T06:24:27.530Z,696.00
2024-02-16T06:25:27.526Z,699.00
2024-02-16T06:26:27.522Z,699.00
2024-02-16T06:27:27.544Z,687.00
2024-02-16T06:28:27.425Z,675.00
2024-02-16T06:29:27.432Z,671.00
2024-02-16T06:30:27.593Z,665.00
2024-02-16T06:31:27.570Z,690.00
2024-02-16T06:32:27.590Z,697.00
2024-02-16T06:33:27.561Z,700.00
2024-02-16T06:34:27.588Z,701.00
2024-02-16T06:35:27.455Z,703.00
2024-02-16T06:36:27.575Z,705.00
2024-02-16T06:37:27.476Z,708.00
2024-02-16T06:38:27.508Z,695.00
2024-02-16T06:39:27.531Z,686.00
2024-02-16T06:40:27.573Z,680.00
2024-02-16T06:41:27.599Z,674.00
2024-02-16T06:42:27.591Z,670.00
2024-02-16T06:43:27.534Z,667.00
2024-02-16T06:44:27.539Z,663.00
2024-02-16T06:45:27.440Z,662.00
2024-02-16T06:46:27.623Z,669.00
2024-02-16T06:47:27.545Z,672.00
2024-02-16T06:48:27.611Z,679.00
2024-02-16T06:49:27.629Z,689.00
2024-02-16T06:50:27.544Z,701.00
2024-02-16T06:51:27.724Z,722.00
2024-02-16T06:52:27.504Z,743.00
2024-02-16T06:53:27.507Z,745.00
2024-02-16T06:54:27.556Z,765.00
2024-02-16T06:55:27.511Z,824.00
2024-02-16T06:56:27.574Z,848.00
2024-02-16T06:57:27.519Z,854.00
2024-02-16T06:58:27.569Z,835.00
2024-02-16T06:59:27.623Z,805.00
2024-02-16T07:00:27.658Z,778.00
2024-02-16T07:01:27.729Z,782.00
2024-02-16T07:02:27.674Z,783.00
2024-02-16T07:03:27.784Z,780.00
2024-02-16T07:04:27.850Z,762.00
2024-02-16T07:05:27.870Z,748.00
2024-02-16T07:06:28.072Z,714.00
2024-02-16T07:07:28.055Z,712.00
2024-02-16T07:08:28.002Z,702.00
2024-02-16T07:09:28.138Z,685.00
2024-02-16T07:10:28.068Z,670.00
2024-02-16T07:11:28.194Z,671.00
2024-02-16T07:12:28.212Z,677.00
2024-02-16T07:13:28.223Z,697.00
2024-02-16T07:14:28.240Z,687.00
2024-02-16T07:15:28.366Z,680.00
2024-02-16T07:16:28.313Z,689.00
2024-02-16T07:17:28.388Z,662.00
2024-02-16T07:18:28.636Z,643.00
2024-02-16T07:19:28.553Z,625.00
2024-02-16T07:20:28.511Z,606.00
2024-02-16T07:21:28.598Z,599.00
2024-02-16T07:22:28.511Z,599.00
2024-02-16T07:23:28.614Z,600.00
2024-02-16T07:24:28.726Z,600.00
2024-02-16T07:25:28.693Z,600.00
2024-02-16T07:26:29.164Z,599.00
2024-02-16T07:27:28.788Z,600.00
2024-02-16T07:28:28.774Z,603.00
2024-02-16T07:29:28.858Z,602.00
2024-02-16T07:30:36.875Z,615.00
2024-02-16T07:31:29.893Z,616.00
2024-02-16T07:32:28.896Z,623.00
2024-02-16T07:33:29.053Z,632.00
2024-02-16T07:34:28.973Z,652.00
2024-02-16T07:35:28.895Z,664.00
2024-02-16T07:36:28.953Z,649.00
2024-02-16T07:37:28.885Z,626.00
2024-02-16T07:38:28.858Z,625.00
2024-02-16T07:39:28.990Z,657.00
2024-02-16T07:40:28.835Z,673.00
2024-02-16T07:41:28.889Z,742.00
2024-02-16T07:42:28.995Z,737.00
2024-02-16T07:43:28.868Z,715.00
2024-02-16T07:44:28.876Z,666.00
2024-02-16T07:45:29.146Z,655.00
2024-02-16T07:46:28.915Z,666.00
2024-02-16T07:47:29.039Z,692.00
2024-02-16T07:48:29.123Z,728.00
2024-02-16T07:49:29.097Z,744.00
2024-02-16T07:50:29.113Z,749.00
2024-02-16T07:51:29.101Z,768.00
2024-02-16T07:52:29.148Z,814.00
2024-02-16T07:53:29.224Z,849.00
2024-02-16T07:54:29.256Z,821.00
2024-02-16T07:55:29.285Z,779.00
2024-02-16T07:56:29.414Z,737.00
2024-02-16T07:57:29.349Z,733.00
2024-02-16T07:58:29.353Z,783.00
2024-02-16T07:59:29.379Z,896.00
2024-02-16T08:00:29.459Z,927.00
2024-02-16T08:01:29.480Z,932.00
2024-02-16T08:02:29.462Z,890.00
2024-02-16T08:03:29.548Z,886.00
2024-02-16T08:04:29.547Z,924.00
2024-02-16T08:05:29.667Z,887.00
2024-02-16T08:06:29.943Z,910.00
2024-02-16T08:07:29.904Z,934.00
2024-02-16T08:08:29.636Z,986.00
2024-02-16T08:09:29.813Z,1029.00
2024-02-16T08:10:29.757Z,1012.00
2024-02-16T08:11:29.878Z,983.00
2024-02-16T08:12:29.841Z,920.00
2024-02-16T08:13:29.867Z,849.00
2024-02-16T08:14:29.944Z,748.00
2024-02-16T08:15:30.077Z,693.00
2024-02-16T08:16:30.021Z,665.00
2024-02-16T08:17:30.018Z,649.00
2024-02-16T08:18:30.210Z,637.00
2024-02-16T08:19:30.088Z,630.00
2024-02-16T08:20:30.078Z,621.00
2024-02-16T08:21:30.162Z,622.00
2024-02-16T08:22:30.102Z,623.00
2024-02-16T08:23:30.120Z,623.00
2024-02-16T08:24:30.206Z,611.00
2024-02-16T08:25:30.136Z,605.00
2024-02-16T08:26:30.144Z,600.00
2024-02-16T08:27:30.244Z,604.00
2024-02-16T08:28:30.073Z,598.00
2024-02-16T08:29:30.099Z,614.00
2024-02-16T08:30:30.295Z,634.00
2024-02-16T08:31:30.073Z,634.00
2024-02-16T08:32:30.111Z,625.00
2024-02-16T08:33:30.351Z,626.00
2024-02-16T08:34:30.276Z,646.00
2024-02-16T08:35:30.283Z,677.00
2024-02-16T08:36:30.374Z,740.00
2024-02-16T08:37:30.460Z,787.00
2024-02-16T08:38:30.519Z,716.00
2024-02-16T08:39:30.469Z,643.00
2024-02-16T08:40:30.429Z,592.00
2024-02-16T08:41:30.561Z,577.00
2024-02-16T08:42:30.595Z,600.00
2024-02-16T08:43:30.572Z,611.00
2024-02-16T08:44:30.553Z,616.00
2024-02-16T08:45:30.735Z,632.00
2024-02-16T08:46:30.915Z,664.00
2024-02-16T08:47:30.826Z,697.00
2024-02-16T08:48:30.959Z,712.00
2024-02-16T08:49:30.860Z,697.00
2024-02-16T08:50:30.804Z,659.00
2024-02-16T08:51:31.082Z,660.00
2024-02-16T08:52:30.918Z,701.00
2024-02-16T08:53:30.959Z,792.00
2024-02-16T08:54:31.096Z,837.00
2024-02-16T08:55:31.157Z,812.00
2024-02-16T08:56:31.667Z,813.00
2024-02-16T08:57:31.312Z,785.00
2024-02-16T08:58:31.261Z,754.00
2024-02-16T08:59:31.287Z,768.00
2024-02-16T09:00:31.507Z,717.00
2024-02-16T09:01:31.411Z,686.00
2024-02-16T09:02:31.415Z,690.00
2024-02-16T09:03:31.532Z,709.00
2024-02-16T09:04:31.457Z,714.00
2024-02-16T09:05:31.723Z,671.00
2024-02-16T09:06:31.823Z,664.00
2024-02-16T09:07:31.619Z,660.00
2024-02-16T09:08:31.640Z,660.00
2024-02-16T09:09:31.723Z,645.00
2024-02-16T09:10:31.805Z,633.00
2024-02-16T09:11:31.809Z,626.00
2024-02-16T09:12:31.808Z,621.00
2024-02-16T09:13:33.912Z,623.00
2024-02-16T09:14:31.651Z,606.00
2024-02-16T09:15:31.754Z,606.00
2024-02-16T09:16:31.716Z,607.00
2024-02-16T09:17:31.701Z,601.00
2024-02-16T09:18:31.769Z,611.00
2024-02-16T09:19:31.787Z,628.00
2024-02-16T09:20:32.106Z,621.00
2024-02-16T09:21:31.932Z,615.00
2024-02-16T09:23:31.697Z,598.00
2024-02-16T09:24:31.821Z,601.00
2024-02-16T09:25:31.662Z,611.00
2024-02-16T09:26:31.869Z,616.00
2024-02-16T09:27:31.732Z,623.00
2024-02-16T09:28:31.688Z,637.00
2024-02-16T09:29:31.660Z,646.00
2024-02-16T09:30:31.747Z,640.00
2024-02-16T09:31:31.696Z,634.00
2024-02-16T09:32:31.696Z,623.00
2024-02-16T09:33:31.852Z,612.00
2024-02-16T09:34:31.840Z,604.00
2024-02-16T09:35:31.726Z,604.00
2024-02-16T09:36:31.938Z,600.00
2024-02-16T09:37:31.702Z,587.00
2024-02-16T09:38:31.728Z,590.00
2024-02-16T09:39:31.740Z,611.00
2024-02-16T09:40:31.689Z,608.00
2024-02-16T09:41:31.760Z,608.00
2024-02-16T09:42:31.797Z,600.00
2024-02-16T09:43:31.709Z,615.00
2024-02-16T09:44:31.786Z,603.00
2024-02-16T09:45:31.793Z,624.00
2024-02-16T09:46:31.804Z,620.00
2024-02-16T09:47:31.800Z,600.00
2024-02-16T09:48:31.942Z,606.00
2024-02-16T09:49:38.985Z,619.00
2024-02-16T09:50:32.946Z,620.00
2024-02-16T09:51:31.887Z,600.00
2024-02-16T09:52:31.714Z,561.00
2024-02-16T09:53:31.794Z,500.00
2024-02-16T09:54:31.736Z,486.00
2024-02-16T09:55:31.718Z,562.00
2024-02-16T09:56:31.787Z,618.00
2024-02-16T09:57:31.890Z,655.00
2024-02-16T09:58:31.789Z,650.00
2024-02-16T09:59:31.781Z,653.00
2024-02-16T10:00:31.876Z,688.00
2024-02-16T10:01:31.822Z,718.00
2024-02-16T10:02:31.836Z,732.00
2024-02-16T10:03:31.885Z,696.00
2024-02-16T10:04:35.652Z,671.00
2024-02-16T10:05:32.878Z,656.00
2024-02-16T10:06:31.867Z,647.00
2024-02-16T10:07:31.915Z,648.00
2024-02-16T10:08:31.811Z,650.00
2024-02-16T10:09:31.933Z,646.00
2024-02-16T10:10:31.824Z,637.00
2024-02-16T10:11:32.050Z,626.00
2024-02-16T10:12:31.938Z,621.00
2024-02-16T10:13:31.860Z,562.00
2024-02-16T10:14:31.878Z,572.00
2024-02-16T10:15:31.893Z,607.00
2024-02-16T10:16:31.878Z,604.00
2024-02-16T10:17:31.970Z,633.00
2024-02-16T10:18:32.147Z,648.00
2024-02-16T10:19:31.991Z,637.00
2024-02-16T10:20:31.967Z,646.00
2024-02-16T10:21:32.349Z,638.00
2024-02-16T10:22:47.168Z,645.00
2024-02-16T10:24:32.052Z,645.00
2024-02-16T10:25:33.484Z,645.00
2024-02-16T10:26:32.075Z,651.00
2024-02-16T10:27:32.077Z,666.00
2024-02-16T10:28:31.965Z,678.00
2024-02-16T10:29:31.975Z,665.00
2024-02-16T10:30:32.058Z,691.00
2024-02-16T10:31:32.206Z,727.00
2024-02-16T10:32:32.025Z,666.00
2024-02-16T10:33:32.153Z,645.00
2024-02-16T10:34:32.086Z,641.00
2024-02-16T10:35:31.999Z,649.00
2024-02-16T10:36:32.156Z,649.00
2024-02-16T10:37:32.038Z,659.00
2024-02-16T10:38:32.036Z,669.00
2024-02-16T10:39:32.117Z,648.00
2024-02-16T10:40:32.073Z,653.00
2024-02-16T10:41:32.084Z,647.00
2024-02-16T10:42:32.096Z,642.00
2024-02-16T10:43:32.174Z,616.00
2024-02-16T10:44:32.055Z,598.00
2024-02-16T10:45:32.153Z,601.00
2024-02-16T10:46:32.068Z,609.00
2024-02-16T10:47:32.099Z,600.00
2024-02-16T10:48:32.192Z,578.00
2024-02-16T10:49:32.298Z,552.00
2024-02-16T10:50:32.186Z,556.00
2024-02-16T10:51:32.113Z,574.00
2024-02-16T10:52:32.113Z,606.00
2024-02-16T10:53:32.130Z,599.00
2024-02-16T10:54:32.073Z,604.00
2024-02-16T10:55:32.086Z,599.00
2024-02-16T10:56:32.165Z,602.00
2024-02-16T10:57:32.154Z,605.00
2024-02-16T10:58:32.074Z,612.00
2024-02-16T10:59:32.093Z,600.00
2024-02-16T11:00:32.406Z,607.00
2024-02-16T11:01:32.251Z,599.00
2024-02-16T11:02:32.336Z,601.00
2024-02-16T11:03:33.296Z,594.00
2024-02-16T11:04:32.390Z,599.00
2024-02-16T11:05:32.360Z,600.00
2024-02-16T11:06:32.498Z,584.00
2024-02-16T11:07:32.506Z,614.00
2024-02-16T11:08:32.458Z,650.00
2024-02-16T11:09:32.540Z,659.00
2024-02-16T11:10:33.662Z,624.00
2024-02-16T11:11:32.805Z,610.00
2024-02-16T11:12:32.732Z,639.00
2024-02-16T11:13:32.713Z,621.00
2024-02-16T11:14:32.761Z,599.00
2024-02-16T11:15:32.804Z,600.00
2024-02-16T11:16:32.903Z,596.00
2024-02-16T11:17:32.746Z,591.00
2024-02-16T11:18:33.153Z,547.00
2024-02-16T11:19:32.953Z,527.00
2024-02-16T11:20:32.959Z,536.00
2024-02-16T11:21:33.000Z,554.00
2024-02-16T11:22:32.987Z,565.00
2024-02-16T11:23:32.975Z,595.00
2024-02-16T11:24:33.058Z,597.00
2024-02-16T11:25:33.020Z,599.00
2024-02-16T11:26:33.125Z,593.00
2024-02-16T11:27:33.270Z,600.00
2024-02-16T11:28:33.143Z,597.00
2024-02-16T11:29:33.154Z,589.00
2024-02-16T11:30:33.243Z,598.00
2024-02-16T11:31:33.217Z,604.00
2024-02-16T11:32:33.505Z,610.00
2024-02-16T11:33:33.522Z,601.00
2024-02-16T11:34:33.460Z,621.00
2024-02-16T11:35:33.363Z,618.00
2024-02-16T11:36:33.586Z,638.00
2024-02-16T11:37:33.526Z,652.00
2024-02-16T11:38:33.501Z,658.00
2024-02-16T11:39:33.605Z,631.00
2024-02-16T11:40:33.591Z,624.00
2024-02-16T11:41:34.022Z,612.00
2024-02-16T11:42:33.674Z,610.00
2024-02-16T11:43:33.646Z,600.00
2024-02-16T11:44:33.640Z,606.00
2024-02-16T11:45:33.735Z,600.00
2024-02-16T11:46:33.782Z,618.00
2024-02-16T11:47:33.823Z,611.00
2024-02-16T11:48:33.996Z,633.00
2024-02-16T11:49:33.926Z,652.00
2024-02-16T11:50:33.777Z,666.00
2024-02-16T11:51:34.083Z,662.00
2024-02-16T11:52:33.973Z,655.00
2024-02-16T11:53:34.025Z,646.00
2024-02-16T11:54:34.156Z,637.00
2024-02-16T11:55:34.144Z,653.00
2024-02-16T11:56:34.142Z,632.00
2024-02-16T11:57:34.402Z,604.00
2024-02-16T11:58:34.269Z,601.00
2024-02-16T11:59:34.322Z,606.00
2024-02-16T12:00:34.477Z,623.00
2024-02-16T12:01:34.553Z,630.00
2024-02-16T12:02:34.394Z,651.00
2024-02-16T12:03:34.546Z,620.00
2024-02-16T12:04:39.510Z,627.00
2024-02-16T12:05:35.536Z,607.00
2024-02-16T12:06:34.744Z,599.00
2024-02-16T12:07:34.715Z,586.00
2024-02-16T12:08:34.520Z,563.00
2024-02-16T12:09:34.713Z,530.00
2024-02-16T12:10:34.566Z,593.00
2024-02-16T12:11:34.668Z,591.00
2024-02-16T12:12:34.884Z,600.00
2024-02-16T12:13:34.541Z,605.00
2024-02-16T12:14:34.589Z,600.00
2024-02-16T12:15:34.617Z,599.00
2024-02-16T12:16:34.577Z,602.00
2024-02-16T12:17:34.585Z,604.00
2024-02-16T12:18:34.713Z,617.00
2024-02-16T12:19:34.601Z,622.00
2024-02-16T12:20:34.622Z,629.00
2024-02-16T12:21:34.655Z,632.00